createdAt,value
2018-02-01T00:01:47.805Z,2.40
2018-02-01T00:04:15.342Z,2.30
2018-02-01T00:06:42.850Z,2.30
2018-02-01T00:09:10.368Z,2.30
2018-02-01T00:11:37.897Z,2.20
2018-02-01T00:14:06.173Z,2.30
2018-02-01T00:16:34.458Z,2.30
2018-02-01T00:19:02.730Z,2.40
2018-02-01T00:21:31.048Z,2.40
2018-02-01T00:23:58.547Z,2.40
2018-02-01T00:26:26.064Z,2.50
2018-02-01T00:28:53.671Z,2.40
2018-02-01T00:31:21.192Z,2.30
2018-02-01T00:33:48.730Z,2.30
2018-02-01T00:36:16.245Z,2.20
2018-02-01T00:38:43.767Z,2.20
2018-02-01T00:41:11.277Z,2.20
2018-02-01T00:43:39.566Z,2.10
2018-02-01T00:46:07.077Z,2.10
2018-02-01T00:48:34.602Z,2.10
2018-02-01T00:51:02.112Z,2.20
2018-02-01T00:53:29.638Z,2.10
2018-02-01T00:55:57.145Z,2.20
2018-02-01T00:58:24.665Z,2.10
2018-02-01T01:00:52.172Z,2.10
2018-02-01T01:03:20.437Z,2.10
2018-02-01T01:05:47.949Z,2.10
2018-02-01T01:08:15.850Z,2.00
2018-02-01T01:10:43.369Z,2.00
2018-02-01T01:13:10.865Z,2.00
2018-02-01T01:15:38.434Z,2.00
2018-02-01T01:18:05.940Z,2.00
2018-02-01T01:20:33.466Z,2.00
2018-02-01T01:23:01.730Z,2.10
2018-02-01T01:25:29.251Z,2.10
2018-02-01T01:27:56.758Z,2.10
2018-02-01T01:30:24.276Z,2.10
2018-02-01T01:32:51.778Z,2.10
2018-02-01T01:35:19.279Z,2.10
2018-02-01T01:37:46.786Z,2.00
2018-02-01T01:40:15.057Z,1.90
2018-02-01T01:42:42.560Z,1.90
2018-02-01T01:45:10.121Z,1.90
2018-02-01T01:47:38.393Z,1.90
2018-02-01T01:50:05.917Z,1.90
2018-02-01T01:52:33.469Z,1.90
2018-02-01T01:55:01.022Z,1.90
2018-02-01T01:57:28.533Z,1.90
2018-02-01T01:59:56.082Z,1.90
2018-02-01T02:02:24.405Z,2.00
2018-02-01T02:04:51.932Z,2.00
2018-02-01T02:07:19.450Z,1.90
2018-02-01T02:09:48.461Z,1.80
2018-02-01T02:12:16.754Z,1.80
2018-02-01T02:14:45.062Z,1.70
2018-02-01T02:17:12.581Z,1.70
2018-02-01T02:19:40.850Z,1.60
2018-02-01T02:22:08.410Z,1.60
2018-02-01T02:24:35.949Z,1.70
2018-02-01T02:27:03.446Z,1.60
2018-02-01T02:29:31.762Z,1.50
2018-02-01T02:31:59.274Z,1.50
2018-02-01T02:34:27.565Z,1.40
2018-02-01T02:36:55.109Z,1.40
2018-02-01T02:39:23.442Z,1.40
2018-02-01T02:41:50.961Z,1.30
2018-02-01T02:44:18.490Z,1.40
2018-02-01T02:46:45.988Z,1.40
2018-02-01T02:49:14.430Z,1.40
2018-02-01T02:51:41.921Z,1.30
2018-02-01T02:54:09.449Z,1.20
2018-02-01T02:56:36.967Z,1.20
2018-02-01T02:59:04.489Z,1.20
2018-02-01T03:01:32.769Z,1.10
2018-02-01T03:04:00.300Z,1.10
2018-02-01T03:06:27.785Z,1.10
2018-02-01T03:08:56.016Z,1.10
2018-02-01T03:11:23.516Z,1.10
2018-02-01T03:13:52.046Z,1.10
2018-02-01T03:16:19.568Z,1.00
2018-02-01T03:18:47.377Z,1.00
2018-02-01T03:21:14.921Z,0.90
2018-02-01T03:23:42.437Z,0.90
2018-02-01T03:26:10.749Z,0.90
2018-02-01T03:28:38.533Z,0.90
2018-02-01T03:31:06.054Z,0.90
2018-02-01T03:33:34.371Z,0.90
2018-02-01T03:36:01.960Z,0.90
2018-02-01T03:38:29.461Z,0.90
2018-02-01T03:40:56.984Z,0.90
2018-02-01T03:43:25.253Z,0.90
2018-02-01T03:45:52.765Z,0.90
2018-02-01T03:48:20.273Z,0.90
2018-02-01T03:50:47.785Z,0.80
2018-02-01T03:53:15.321Z,0.80
2018-02-01T03:55:42.841Z,0.80
2018-02-01T03:58:10.390Z,0.80
2018-02-01T04:00:37.897Z,0.70
2018-02-01T04:03:06.161Z,0.80
2018-02-01T04:05:33.673Z,0.80
2018-02-01T04:08:01.193Z,0.80
2018-02-01T04:10:29.501Z,0.70
2018-02-01T04:12:57.026Z,0.70
2018-02-01T04:15:25.335Z,0.70
2018-02-01T04:17:53.221Z,0.70
2018-02-01T04:20:20.734Z,0.70
2018-02-01T04:22:49.059Z,0.70
2018-02-01T04:25:16.581Z,0.70
2018-02-01T04:27:44.077Z,0.70
2018-02-01T04:30:11.561Z,0.70
2018-02-01T04:32:39.522Z,0.70
2018-02-01T04:35:07.008Z,0.70
2018-02-01T04:37:34.485Z,0.70
2018-02-01T04:40:02.741Z,0.70
2018-02-01T04:42:30.211Z,0.70
2018-02-01T04:44:58.457Z,0.60
2018-02-01T04:47:25.941Z,0.60
2018-02-01T04:49:53.424Z,0.60
2018-02-01T04:52:20.896Z,0.60
2018-02-01T04:54:48.389Z,0.60
2018-02-01T04:57:15.868Z,0.60
2018-02-01T04:59:43.352Z,0.50
2018-02-01T05:02:10.824Z,0.50
2018-02-01T05:04:38.304Z,0.50
2018-02-01T05:07:05.784Z,0.50
2018-02-01T05:09:33.265Z,0.50
2018-02-01T05:12:01.509Z,0.50
2018-02-01T05:14:28.992Z,0.50
2018-02-01T05:16:57.536Z,0.50
2018-02-01T05:19:25.013Z,0.40
2018-02-01T05:21:52.500Z,0.50
2018-02-01T05:24:20.740Z,0.50
2018-02-01T05:26:48.224Z,0.50
2018-02-01T05:29:15.699Z,0.40
2018-02-01T05:31:43.948Z,0.50
2018-02-01T05:34:11.419Z,0.50
2018-02-01T05:36:38.913Z,0.40
2018-02-01T05:39:06.384Z,0.50
2018-02-01T05:41:33.873Z,0.50
2018-02-01T05:44:01.572Z,0.50
2018-02-01T05:46:30.100Z,0.50
2018-02-01T05:48:57.577Z,0.40
2018-02-01T05:51:25.044Z,0.50
2018-02-01T05:53:52.528Z,0.50
2018-02-01T05:56:20.772Z,0.50
2018-02-01T05:58:48.260Z,0.50
2018-02-01T06:01:15.736Z,0.50
2018-02-01T06:03:43.986Z,0.60
2018-02-01T06:06:11.458Z,0.60
2018-02-01T06:08:39.701Z,0.80
2018-02-01T06:11:07.181Z,0.80
2018-02-01T06:13:35.435Z,0.90
2018-02-01T06:16:03.179Z,0.90
2018-02-01T06:18:30.944Z,1.00
2018-02-01T06:20:58.408Z,1.00
2018-02-01T06:23:25.910Z,1.00
2018-02-01T06:25:54.157Z,1.10
2018-02-01T06:28:21.633Z,1.10
2018-02-01T06:30:49.112Z,1.10
2018-02-01T06:33:17.352Z,1.10
2018-02-01T06:35:44.838Z,1.00
2018-02-01T06:38:12.350Z,1.00
2018-02-01T06:40:39.822Z,1.10
2018-02-01T06:43:07.297Z,1.10
2018-02-01T06:45:34.794Z,1.10
2018-02-01T06:48:03.032Z,1.10
2018-02-01T06:50:30.529Z,1.10
2018-02-01T06:52:58.005Z,1.10
2018-02-01T06:55:25.487Z,1.10
2018-02-01T06:57:52.951Z,1.10
2018-02-01T07:00:20.437Z,1.20
2018-02-01T07:02:47.899Z,1.10
2018-02-01T07:05:16.153Z,1.00
2018-02-01T07:07:43.628Z,1.00
2018-02-01T07:10:11.108Z,0.90
2018-02-01T07:12:38.589Z,0.80
2018-02-01T07:15:06.069Z,0.80
2018-02-01T07:17:33.555Z,0.80
2018-02-01T07:20:01.026Z,0.70
2018-02-01T07:22:29.280Z,0.80
2018-02-01T07:24:56.748Z,0.80
2018-02-01T07:27:25.746Z,0.70
2018-02-01T07:29:53.211Z,0.70
2018-02-01T07:32:20.700Z,0.60
2018-02-01T07:34:48.188Z,0.60
2018-02-01T07:37:15.692Z,0.70
2018-02-01T07:39:43.933Z,0.70
2018-02-01T07:42:11.471Z,0.70
2018-02-01T07:44:39.736Z,0.70
2018-02-01T07:47:07.225Z,0.70
2018-02-01T07:49:34.696Z,0.70
2018-02-01T07:52:02.181Z,0.70
2018-02-01T07:54:30.431Z,0.80
2018-02-01T07:56:57.904Z,0.80
2018-02-01T07:59:26.176Z,0.80
2018-02-01T08:01:53.653Z,0.80
2018-02-01T08:04:21.912Z,0.90
2018-02-01T08:06:49.390Z,0.80
2018-02-01T08:09:17.640Z,1.00
2018-02-01T08:11:45.372Z,1.00
2018-02-01T08:14:12.848Z,1.10
2018-02-01T08:16:40.327Z,1.10
2018-02-01T08:19:09.325Z,1.30
2018-02-01T08:21:36.788Z,1.30
2018-02-01T08:24:04.264Z,1.40
2018-02-01T08:26:32.508Z,1.40
2018-02-01T08:28:59.989Z,1.40
2018-02-01T08:31:27.460Z,1.50
2018-02-01T08:33:55.713Z,1.70
2018-02-01T08:36:23.173Z,1.70
2018-02-01T08:38:50.893Z,1.70
2018-02-01T08:41:18.365Z,1.80
2018-02-01T08:43:46.113Z,1.70
2018-02-01T08:46:13.588Z,1.80
2018-02-01T08:48:41.058Z,1.90
2018-02-01T08:51:08.528Z,1.80
2018-02-01T08:53:36.001Z,1.80
2018-02-01T08:56:04.251Z,2.10
2018-02-01T08:58:31.720Z,2.10
2018-02-01T09:00:59.964Z,2.50
2018-02-01T09:03:27.445Z,2.50
2018-02-01T09:05:54.920Z,2.60
2018-02-01T09:08:22.385Z,2.60
2018-02-01T09:10:49.855Z,2.40
2018-02-01T09:13:18.090Z,2.20
2018-02-01T09:15:45.560Z,2.20
2018-02-01T09:18:13.034Z,2.20
2018-02-01T09:20:40.507Z,2.30
2018-02-01T09:23:07.995Z,2.30
2018-02-01T09:25:35.464Z,2.30
2018-02-01T09:28:02.948Z,2.40
2018-02-01T09:30:30.408Z,2.40
2018-02-01T09:32:57.880Z,2.40
2018-02-01T09:35:25.344Z,2.50
2018-02-01T09:37:52.821Z,2.60
2018-02-01T09:40:20.288Z,2.60
2018-02-01T09:42:47.776Z,2.60
2018-02-01T09:45:15.248Z,2.70
2018-02-01T09:47:42.717Z,2.70
2018-02-01T09:50:10.241Z,2.80
2018-02-01T09:52:37.758Z,2.80
2018-02-01T09:55:06.066Z,3.10
2018-02-01T09:57:33.605Z,3.10
2018-02-01T10:00:01.130Z,3.20
2018-02-01T10:02:28.630Z,3.30
2018-02-01T10:04:56.145Z,3.30
2018-02-01T10:07:23.690Z,3.30
2018-02-01T10:09:51.214Z,3.30
2018-02-01T10:12:18.777Z,3.20
2018-02-01T10:14:47.021Z,3.10
2018-02-01T10:17:18.693Z,3.10
2018-02-01T10:19:46.993Z,3.10
2018-02-01T10:22:14.517Z,3.10
2018-02-01T10:24:42.809Z,3.10
2018-02-01T10:27:12.067Z,3.10
2018-02-01T10:29:39.596Z,3.00
2018-02-01T10:32:07.094Z,3.10
2018-02-01T10:34:34.601Z,3.10
2018-02-01T10:37:02.390Z,3.20
2018-02-01T10:39:29.896Z,3.30
2018-02-01T10:41:58.159Z,3.40
2018-02-01T10:44:25.677Z,3.40
2018-02-01T10:46:53.177Z,3.60
2018-02-01T10:49:20.715Z,3.50
2018-02-01T10:51:48.254Z,3.60
2018-02-01T10:54:15.753Z,3.60
2018-02-01T10:56:43.285Z,3.60
2018-02-01T10:59:10.871Z,3.60
2018-02-01T11:01:38.389Z,3.60
2018-02-01T11:04:05.913Z,3.70
2018-02-01T11:06:34.228Z,3.70
2018-02-01T11:09:01.742Z,3.70
2018-02-01T11:11:29.241Z,3.70
2018-02-01T11:13:56.757Z,3.70
2018-02-01T11:16:24.253Z,3.60
2018-02-01T11:18:51.781Z,3.50
2018-02-01T11:21:19.315Z,3.50
2018-02-01T11:23:46.864Z,3.40
2018-02-01T11:26:14.374Z,3.40
2018-02-01T11:28:42.659Z,3.50
2018-02-01T11:31:10.163Z,3.50
2018-02-01T11:33:37.699Z,3.50
2018-02-01T11:36:05.233Z,3.50
2018-02-01T11:38:33.530Z,3.50
2018-02-01T11:41:01.041Z,3.50
2018-02-01T11:43:28.561Z,3.50
2018-02-01T11:45:56.069Z,3.50
2018-02-01T11:48:23.617Z,3.50
2018-02-01T11:50:51.108Z,3.50
2018-02-01T11:53:19.370Z,3.50
2018-02-01T11:55:47.653Z,3.50
2018-02-01T11:58:15.962Z,3.50
2018-02-01T12:00:43.514Z,3.50
2018-02-01T12:03:11.022Z,3.50
2018-02-01T12:05:38.552Z,3.50
2018-02-01T12:08:06.047Z,3.50
2018-02-01T12:10:33.613Z,3.50
2018-02-01T12:13:01.105Z,3.50
2018-02-01T12:15:28.609Z,3.50
2018-02-01T12:17:57.173Z,3.50
2018-02-01T12:20:24.689Z,3.50
2018-02-01T12:22:52.969Z,3.40
2018-02-01T12:25:21.260Z,3.40
2018-02-01T12:27:48.785Z,3.40
2018-02-01T12:30:16.345Z,3.40
2018-02-01T12:32:43.866Z,3.50
2018-02-01T12:35:11.381Z,3.40
2018-02-01T12:37:39.645Z,3.40
2018-02-01T12:40:07.143Z,3.40
2018-02-01T12:42:34.634Z,3.40
2018-02-01T12:45:02.157Z,3.40
2018-02-01T12:47:29.720Z,3.40
2018-02-01T12:49:57.257Z,3.50
2018-02-01T12:52:25.525Z,3.50
2018-02-01T12:54:53.821Z,3.50
2018-02-01T12:57:22.095Z,3.50
2018-02-01T12:59:49.593Z,3.50
2018-02-01T13:02:17.081Z,3.50
2018-02-01T13:04:44.573Z,3.60
2018-02-01T13:07:12.856Z,3.60
2018-02-01T13:09:40.361Z,3.60
2018-02-01T13:12:07.863Z,3.60
2018-02-01T13:14:36.127Z,3.60
2018-02-01T13:17:03.632Z,3.60
2018-02-01T13:19:31.126Z,3.60
2018-02-01T13:21:58.698Z,3.50
2018-02-01T13:24:26.193Z,3.50
2018-02-01T13:26:53.708Z,3.40
2018-02-01T13:29:21.197Z,3.40
2018-02-01T13:31:48.701Z,3.40
2018-02-01T13:34:16.217Z,3.40
2018-02-01T13:36:44.489Z,3.40
2018-02-01T13:39:12.765Z,3.30
2018-02-01T13:41:41.029Z,3.20
2018-02-01T13:44:08.526Z,3.20
2018-02-01T13:46:36.030Z,3.00
2018-02-01T13:49:03.538Z,2.90
2018-02-01T13:51:31.325Z,3.00
2018-02-01T13:53:58.845Z,3.10
2018-02-01T13:56:27.189Z,3.10
2018-02-01T13:58:54.693Z,3.10
2018-02-01T14:01:22.969Z,3.00
2018-02-01T14:03:51.216Z,2.90
2018-02-01T14:06:18.729Z,2.90
2018-02-01T14:08:46.229Z,2.80
2018-02-01T14:11:13.760Z,2.70
2018-02-01T14:13:41.265Z,2.60
2018-02-01T14:16:09.529Z,2.70
2018-02-01T14:18:37.026Z,2.70
2018-02-01T14:21:04.517Z,2.70
2018-02-01T14:23:32.042Z,2.70
2018-02-01T14:25:59.559Z,2.70
2018-02-01T14:28:27.121Z,2.70
2018-02-01T14:30:54.639Z,2.70
2018-02-01T14:33:22.166Z,2.70
2018-02-01T14:35:49.717Z,2.60
2018-02-01T14:38:18.002Z,2.70
2018-02-01T14:40:46.280Z,2.70
2018-02-01T14:43:14.608Z,2.60
2018-02-01T14:45:42.097Z,2.60
2018-02-01T14:48:09.601Z,2.60
2018-02-01T14:50:37.061Z,2.50
2018-02-01T14:53:04.540Z,2.50
2018-02-01T14:55:32.006Z,2.40
2018-02-01T14:57:59.481Z,2.40
2018-02-01T15:00:26.940Z,2.40
2018-02-01T15:02:54.430Z,2.40
2018-02-01T15:05:22.660Z,2.40
2018-02-01T15:07:50.136Z,2.40
2018-02-01T15:10:17.604Z,2.40
2018-02-01T15:12:45.080Z,2.30
2018-02-01T15:15:13.325Z,2.40
2018-02-01T15:17:40.856Z,2.40
2018-02-01T15:20:08.373Z,2.30
2018-02-01T15:22:36.662Z,2.30
2018-02-01T15:25:04.161Z,2.30
2018-02-01T15:27:32.438Z,2.30
2018-02-01T15:29:59.974Z,2.30
2018-02-01T15:32:27.514Z,2.30
2018-02-01T15:34:55.005Z,2.20
2018-02-01T15:37:22.538Z,2.30
2018-02-01T15:39:50.042Z,2.20
2018-02-01T15:42:17.547Z,2.20
2018-02-01T15:44:45.046Z,2.20
2018-02-01T15:47:12.546Z,2.10
2018-02-01T15:49:40.051Z,2.10
2018-02-01T15:52:07.549Z,2.10
2018-02-01T15:54:35.082Z,2.20
2018-02-01T15:57:02.569Z,2.20
2018-02-01T15:59:30.076Z,2.30
2018-02-01T16:01:57.595Z,2.20
2018-02-01T16:04:25.977Z,2.30
2018-02-01T16:06:53.475Z,2.30
2018-02-01T16:09:21.001Z,2.30
2018-02-01T16:11:49.540Z,2.30
2018-02-01T16:14:17.068Z,2.30
2018-02-01T16:16:44.582Z,2.40
2018-02-01T16:19:12.089Z,2.30
2018-02-01T16:21:39.877Z,2.40
2018-02-01T16:24:08.210Z,2.40
2018-02-01T16:26:36.481Z,2.40
2018-02-01T16:29:03.989Z,2.40
2018-02-01T16:31:31.493Z,2.40
2018-02-01T16:33:58.998Z,2.30
2018-02-01T16:36:26.518Z,2.20
2018-02-01T16:38:54.854Z,2.10
2018-02-01T16:41:22.414Z,2.10
2018-02-01T16:43:50.708Z,2.00
2018-02-01T16:46:18.208Z,2.00
2018-02-01T16:48:46.505Z,2.00
2018-02-01T16:51:14.007Z,2.00
2018-02-01T16:53:41.602Z,2.10
2018-02-01T16:56:09.895Z,2.10
2018-02-01T16:58:37.401Z,2.10
2018-02-01T17:01:04.977Z,2.10
2018-02-01T17:03:32.508Z,2.10
2018-02-01T17:06:00.010Z,2.10
2018-02-01T17:08:28.333Z,2.10
2018-02-01T17:10:55.849Z,2.10
2018-02-01T17:13:24.138Z,2.10
2018-02-01T17:15:52.413Z,2.00
2018-02-01T17:18:20.929Z,2.00
2018-02-01T17:20:48.697Z,2.00
2018-02-01T17:23:16.196Z,1.90
2018-02-01T17:25:43.703Z,1.90
2018-02-01T17:28:11.202Z,1.90
2018-02-01T17:30:39.041Z,1.90
2018-02-01T17:33:06.806Z,1.90
2018-02-01T17:35:34.314Z,1.90
2018-02-01T17:38:02.630Z,1.90
2018-02-01T17:40:30.140Z,1.90
2018-02-01T17:42:57.677Z,1.90
2018-02-01T17:45:25.185Z,1.90
2018-02-01T17:47:53.474Z,1.90
2018-02-01T17:50:21.260Z,1.90
2018-02-01T17:52:48.773Z,2.00
2018-02-01T17:55:17.056Z,2.00
2018-02-01T17:57:45.333Z,2.00
2018-02-01T18:00:13.622Z,2.00
2018-02-01T18:02:41.142Z,1.90
2018-02-01T18:05:08.671Z,1.90
2018-02-01T18:07:36.193Z,1.90
2018-02-01T18:10:04.544Z,1.90
2018-02-01T18:12:32.075Z,1.90
2018-02-01T18:14:59.679Z,1.90
2018-02-01T18:17:27.977Z,1.90
2018-02-01T18:19:56.315Z,2.00
2018-02-01T18:22:24.585Z,2.00
2018-02-01T18:24:52.136Z,2.00
2018-02-01T18:27:20.401Z,2.00
2018-02-01T18:29:47.909Z,2.00
2018-02-01T18:32:16.183Z,2.00
2018-02-01T18:34:44.009Z,1.90
2018-02-01T18:37:11.533Z,1.90
2018-02-01T18:39:39.067Z,1.90
2018-02-01T18:42:06.592Z,1.90
2018-02-01T18:44:34.117Z,1.90
2018-02-01T18:47:01.626Z,1.80
2018-02-01T18:49:29.124Z,1.80
2018-02-01T18:51:57.404Z,1.70
2018-02-01T18:54:24.952Z,1.60
2018-02-01T18:56:53.319Z,1.50
2018-02-01T18:59:21.602Z,1.50
2018-02-01T19:01:49.114Z,1.50
2018-02-01T19:04:16.609Z,1.40
2018-02-01T19:06:44.175Z,1.40
2018-02-01T19:09:11.714Z,1.40
2018-02-01T19:11:39.226Z,1.40
2018-02-01T19:14:06.767Z,1.40
2018-02-01T19:16:35.045Z,1.40
2018-02-01T19:19:03.393Z,1.40
2018-02-01T19:21:30.928Z,1.40
2018-02-01T19:23:58.438Z,1.40
2018-02-01T19:26:26.717Z,1.40
2018-02-01T19:28:55.005Z,1.40
2018-02-01T19:31:23.762Z,1.40
2018-02-01T19:33:51.306Z,1.40
2018-02-01T19:36:18.909Z,1.50
2018-02-01T19:38:47.219Z,1.40
2018-02-01T19:41:14.808Z,1.40
2018-02-01T19:43:42.417Z,1.30
2018-02-01T19:46:09.923Z,1.30
2018-02-01T19:48:45.373Z,1.40
2018-02-01T19:51:13.747Z,1.40
2018-02-01T19:53:44.605Z,1.40
2018-02-01T19:56:12.215Z,1.40
2018-02-01T19:58:39.772Z,1.40
2018-02-01T20:01:07.350Z,1.30
2018-02-01T20:03:37.958Z,1.20
2018-02-01T20:06:05.527Z,1.20
2018-02-01T20:08:33.032Z,1.20
2018-02-01T20:11:00.541Z,1.10
2018-02-01T20:13:28.093Z,1.20
2018-02-01T20:15:55.682Z,1.20
2018-02-01T20:18:23.264Z,1.30
2018-02-01T20:20:50.858Z,1.30
2018-02-01T20:23:19.243Z,1.40
2018-02-01T20:25:47.511Z,1.50
2018-02-01T20:28:19.023Z,1.50
2018-02-01T20:30:47.282Z,1.50
2018-02-01T20:33:14.842Z,1.60
2018-02-01T20:35:42.402Z,1.60
2018-02-01T20:38:09.923Z,1.70
2018-02-01T20:40:38.189Z,1.70
2018-02-01T20:43:05.751Z,1.70
2018-02-01T20:45:33.256Z,1.80
2018-02-01T20:48:00.855Z,1.70
2018-02-01T20:50:28.603Z,1.70
2018-02-01T20:52:56.210Z,1.70
2018-02-01T20:55:24.578Z,1.50
2018-02-01T20:57:52.122Z,1.50
2018-02-01T21:00:19.742Z,1.50
2018-02-01T21:02:47.339Z,1.50
2018-02-01T21:05:14.837Z,1.40
2018-02-01T21:07:55.563Z,1.30
2018-02-01T21:10:26.657Z,1.30
2018-02-01T21:12:59.101Z,1.30
2018-02-01T21:15:33.658Z,1.20
2018-02-01T21:18:01.328Z,1.10
2018-02-01T21:20:28.851Z,1.10
2018-02-01T21:22:56.332Z,1.00
2018-02-01T21:25:24.587Z,0.90
2018-02-01T21:27:52.110Z,0.90
2018-02-01T21:30:19.621Z,0.90
2018-02-01T21:32:47.858Z,1.00
2018-02-01T21:35:15.384Z,1.00
2018-02-01T21:37:42.855Z,1.00
2018-02-01T21:40:10.336Z,1.00
2018-02-01T21:42:37.804Z,1.00
2018-02-01T21:45:05.287Z,1.00
2018-02-01T21:47:33.540Z,1.10
2018-02-01T21:50:01.017Z,1.10
2018-02-01T21:52:28.484Z,1.10
2018-02-01T21:54:56.777Z,1.20
2018-02-01T21:57:25.028Z,1.20
2018-02-01T21:59:52.502Z,1.20
2018-02-01T22:02:20.750Z,1.30
2018-02-01T22:04:48.218Z,1.30
2018-02-01T22:07:15.757Z,1.30
2018-02-01T22:09:43.224Z,1.30
2018-02-01T22:12:10.709Z,1.30
2018-02-01T22:14:38.994Z,1.30
2018-02-01T22:17:07.279Z,1.30
2018-02-01T22:19:35.517Z,1.30
2018-02-01T22:22:02.987Z,1.30
2018-02-01T22:24:31.275Z,1.30
2018-02-01T22:26:59.525Z,1.30
2018-02-01T22:29:27.051Z,1.30
2018-02-01T22:31:54.524Z,1.30
2018-02-01T22:34:22.273Z,1.30
2018-02-01T22:36:49.795Z,1.30
2018-02-01T22:39:18.040Z,1.30
2018-02-01T22:41:45.525Z,1.30
2018-02-01T22:44:13.878Z,1.40
2018-02-01T22:46:41.401Z,1.40
2018-02-01T22:49:08.929Z,1.40
2018-02-01T22:51:36.450Z,1.40
2018-02-01T22:54:03.982Z,1.40
2018-02-01T22:56:31.515Z,1.40
2018-02-01T22:58:59.034Z,1.50
2018-02-01T23:01:26.567Z,1.40
2018-02-01T23:03:54.113Z,1.40
2018-02-01T23:06:21.630Z,1.50
2018-02-01T23:08:49.149Z,1.50
2018-02-01T23:11:16.660Z,1.50
2018-02-01T23:13:44.955Z,1.50
2018-02-01T23:16:12.453Z,1.50
2018-02-01T23:18:40.005Z,1.50
2018-02-01T23:21:07.521Z,1.50
2018-02-01T23:23:35.043Z,1.50
2018-02-01T23:26:02.558Z,1.50
2018-02-01T23:28:30.054Z,1.50
2018-02-01T23:30:57.570Z,1.50
2018-02-01T23:33:25.071Z,1.50
2018-02-01T23:35:52.665Z,1.50
2018-02-01T23:38:20.944Z,1.50
2018-02-01T23:40:49.229Z,1.60
2018-02-01T23:43:17.505Z,1.50
2018-02-01T23:45:45.809Z,1.50
2018-02-01T23:48:13.305Z,1.50
2018-02-01T23:50:40.817Z,1.50
2018-02-01T23:53:08.330Z,1.50
2018-02-01T23:55:35.837Z,1.50
2018-02-01T23:58:03.341Z,1.60
